sensor_id;sensor_type;location;lat;lon;timestamp;temperature;humidity
43673;DHT22;41723;49.326;8.430;2023-12-20T00:00:08;5.80;99.90
43673;DHT22;41723;49.326;8.430;2023-12-20T00:02:33;5.80;99.90
43673;DHT22;41723;49.326;8.430;2023-12-20T00:05:00;5.70;99.90
43673;DHT22;41723;49.326;8.430;2023-12-20T00:07:25;5.70;99.90
43673;DHT22;41723;49.326;8.430;2023-12-20T00:09:51;5.80;99.90
43673;DHT22;41723;49.326;8.430;2023-12-20T00:12:16;5.70;99.90
43673;DHT22;41723;49.326;8.430;2023-12-20T00:14:42;5.80;99.90
43673;DHT22;41723;49.326;8.430;2023-12-20T00:17:07;5.80;99.90
43673;DHT22;41723;49.326;8.430;2023-12-20T00:19:33;5.80;99.90
43673;DHT22;41723;49.326;8.430;2023-12-20T00:21:59;5.80;99.90
43673;DHT22;41723;49.326;8.430;2023-12-20T00:24:25;5.80;99.90
43673;DHT22;41723;49.326;8.430;2023-12-20T00:26:50;5.80;99.90
43673;DHT22;41723;49.326;8.430;2023-12-20T00:29:16;5.80;99.90
43673;DHT22;41723;49.326;8.430;2023-12-20T00:31:42;5.80;99.90
43673;DHT22;41723;49.326;8.430;2023-12-20T00:34:07;5.90;99.90
43673;DHT22;41723;49.326;8.430;2023-12-20T00:36:33;5.90;99.90
43673;DHT22;41723;49.326;8.430;2023-12-20T00:38:58;5.90;99.90
43673;DHT22;41723;49.326;8.430;2023-12-20T00:41:24;5.90;99.90
43673;DHT22;41723;49.326;8.430;2023-12-20T00:43:50;5.90;99.90
43673;DHT22;41723;49.326;8.430;2023-12-20T00:46:15;5.90;99.90
43673;DHT22;41723;49.326;8.430;2023-12-20T00:48:41;5.90;99.90
43673;DHT22;41723;49.326;8.430;2023-12-20T00:51:07;5.90;99.90
43673;DHT22;41723;49.326;8.430;2023-12-20T00:53:33;5.90;99.90
43673;DHT22;41723;49.326;8.430;2023-12-20T00:55:59;5.90;99.90
43673;DHT22;41723;49.326;8.430;2023-12-20T00:58:24;6.00;99.90
43673;DHT22;41723;49.326;8.430;2023-12-20T01:00:50;6.00;99.90
43673;DHT22;41723;49.326;8.430;2023-12-20T01:03:16;6.00;99.90
43673;DHT22;41723;49.326;8.430;2023-12-20T01:05:42;6.00;99.90
43673;DHT22;41723;49.326;8.430;2023-12-20T01:08:07;6.00;99.90
43673;DHT22;41723;49.326;8.430;2023-12-20T01:10:33;5.90;99.90
43673;DHT22;41723;49.326;8.430;2023-12-20T01:12:58;6.00;99.90
43673;DHT22;41723;49.326;8.430;2023-12-20T01:15:24;5.90;99.90
43673;DHT22;41723;49.326;8.430;2023-12-20T01:17:49;5.90;99.90
43673;DHT22;41723;49.326;8.430;2023-12-20T01:20:15;6.00;99.90
43673;DHT22;41723;49.326;8.430;2023-12-20T01:22:40;5.90;99.90
43673;DHT22;41723;49.326;8.430;2023-12-20T01:25:08;5.90;99.90
43673;DHT22;41723;49.326;8.430;2023-12-20T01:27:33;5.90;99.90
43673;DHT22;41723;49.326;8.430;2023-12-20T01:29:59;6.00;99.90
43673;DHT22;41723;49.326;8.430;2023-12-20T01:32:24;5.90;99.90
43673;DHT22;41723;49.326;8.430;2023-12-20T01:34:50;5.90;99.90
43673;DHT22;41723;49.326;8.430;2023-12-20T01:37:16;5.90;99.90
43673;DHT22;41723;49.326;8.430;2023-12-20T01:39:41;5.90;99.90
43673;DHT22;41723;49.326;8.430;2023-12-20T01:42:07;5.90;99.90
43673;DHT22;41723;49.326;8.430;2023-12-20T01:44:32;5.90;99.90
43673;DHT22;41723;49.326;8.430;2023-12-20T01:46:58;5.90;99.90
43673;DHT22;41723;49.326;8.430;2023-12-20T01:49:24;5.90;99.90
43673;DHT22;41723;49.326;8.430;2023-12-20T01:51:49;5.90;99.90
43673;DHT22;41723;49.326;8.430;2023-12-20T01:54:15;5.90;99.90
43673;DHT22;41723;49.326;8.430;2023-12-20T01:56:41;5.90;99.90
43673;DHT22;41723;49.326;8.430;2023-12-20T01:59:07;5.90;99.90
43673;DHT22;41723;49.326;8.430;2023-12-20T02:01:34;5.90;99.90
43673;DHT22;41723;49.326;8.430;2023-12-20T02:04:00;5.90;99.90
43673;DHT22;41723;49.326;8.430;2023-12-20T02:06:27;5.90;99.90
43673;DHT22;41723;49.326;8.430;2023-12-20T02:08:54;5.90;99.90
43673;DHT22;41723;49.326;8.430;2023-12-20T02:11:20;5.90;99.90
43673;DHT22;41723;49.326;8.430;2023-12-20T02:13:46;6.00;99.90
43673;DHT22;41723;49.326;8.430;2023-12-20T02:16:12;6.00;99.90
43673;DHT22;41723;49.326;8.430;2023-12-20T02:18:37;6.00;99.90
43673;DHT22;41723;49.326;8.430;2023-12-20T02:21:04;6.00;99.90
43673;DHT22;41723;49.326;8.430;2023-12-20T02:23:30;6.00;99.90
43673;DHT22;41723;49.326;8.430;2023-12-20T02:25:55;6.00;99.90
43673;DHT22;41723;49.326;8.430;2023-12-20T02:28:21;6.00;99.90
43673;DHT22;41723;49.326;8.430;2023-12-20T02:30:48;6.00;99.90
43673;DHT22;41723;49.326;8.430;2023-12-20T02:33:14;6.00;99.90
43673;DHT22;41723;49.326;8.430;2023-12-20T02:35:40;6.00;99.90
43673;DHT22;41723;49.326;8.430;2023-12-20T02:38:06;6.00;99.90
43673;DHT22;41723;49.326;8.430;2023-12-20T02:40:32;6.00;99.90
43673;DHT22;41723;49.326;8.430;2023-12-20T02:42:57;6.00;99.90
43673;DHT22;41723;49.326;8.430;2023-12-20T02:45:23;6.00;99.90
43673;DHT22;41723;49.326;8.430;2023-12-20T02:47:48;6.00;99.90
43673;DHT22;41723;49.326;8.430;2023-12-20T02:50:14;6.00;99.90
43673;DHT22;41723;49.326;8.430;2023-12-20T02:52:40;6.00;99.90
43673;DHT22;41723;49.326;8.430;2023-12-20T02:55:05;6.00;99.90
43673;DHT22;41723;49.326;8.430;2023-12-20T02:57:31;6.00;99.90
43673;DHT22;41723;49.326;8.430;2023-12-20T02:59:58;6.00;99.90
43673;DHT22;41723;49.326;8.430;2023-12-20T03:02:24;6.00;99.90
43673;DHT22;41723;49.326;8.430;2023-12-20T03:04:49;6.10;99.90
43673;DHT22;41723;49.326;8.430;2023-12-20T03:07:15;6.10;99.90
43673;DHT22;41723;49.326;8.430;2023-12-20T03:09:41;6.10;99.90
43673;DHT22;41723;49.326;8.430;2023-12-20T03:12:06;6.10;99.90
43673;DHT22;41723;49.326;8.430;2023-12-20T03:14:32;6.10;99.90
43673;DHT22;41723;49.326;8.430;2023-12-20T03:16:58;6.20;99.90
43673;DHT22;41723;49.326;8.430;2023-12-20T03:19:23;6.20;99.90
43673;DHT22;41723;49.326;8.430;2023-12-20T03:21:49;6.20;99.90
43673;DHT22;41723;49.326;8.430;2023-12-20T03:24:14;6.20;99.90
43673;DHT22;41723;49.326;8.430;2023-12-20T03:26:40;6.20;99.90
43673;DHT22;41723;49.326;8.430;2023-12-20T03:29:05;6.20;99.90
43673;DHT22;41723;49.326;8.430;2023-12-20T03:31:31;6.20;99.90
43673;DHT22;41723;49.326;8.430;2023-12-20T03:33:57;6.20;99.90
43673;DHT22;41723;49.326;8.430;2023-12-20T03:36:22;6.20;99.90
43673;DHT22;41723;49.326;8.430;2023-12-20T03:38:48;6.20;99.90
43673;DHT22;41723;49.326;8.430;2023-12-20T03:41:13;6.20;99.90
43673;DHT22;41723;49.326;8.430;2023-12-20T03:43:39;6.20;99.90
43673;DHT22;41723;49.326;8.430;2023-12-20T03:46:05;6.20;99.90
43673;DHT22;41723;49.326;8.430;2023-12-20T03:48:31;6.20;99.90
43673;DHT22;41723;49.326;8.430;2023-12-20T03:50:56;6.30;99.90
43673;DHT22;41723;49.326;8.430;2023-12-20T03:53:22;6.30;99.90
43673;DHT22;41723;49.326;8.430;2023-12-20T03:55:48;6.30;99.90
43673;DHT22;41723;49.326;8.430;2023-12-20T03:58:13;6.40;99.90
43673;DHT22;41723;49.326;8.430;2023-12-20T04:00:39;6.30;99.90
43673;DHT22;41723;49.326;8.430;2023-12-20T04:03:04;6.30;99.90
43673;DHT22;41723;49.326;8.430;2023-12-20T04:05:30;6.20;99.90
43673;DHT22;41723;49.326;8.430;2023-12-20T04:07:56;6.30;99.90
43673;DHT22;41723;49.326;8.430;2023-12-20T04:10:21;6.20;99.90
43673;DHT22;41723;49.326;8.430;2023-12-20T04:12:47;6.30;99.90
43673;DHT22;41723;49.326;8.430;2023-12-20T04:15:12;6.30;99.90
43673;DHT22;41723;49.326;8.430;2023-12-20T04:17:38;6.30;99.90
43673;DHT22;41723;49.326;8.430;2023-12-20T04:20:04;6.40;99.90
43673;DHT22;41723;49.326;8.430;2023-12-20T04:22:29;6.30;99.90
43673;DHT22;41723;49.326;8.430;2023-12-20T04:24:55;6.40;99.90
43673;DHT22;41723;49.326;8.430;2023-12-20T04:27:20;6.40;99.90
43673;DHT22;41723;49.326;8.430;2023-12-20T04:29:46;6.40;99.90
43673;DHT22;41723;49.326;8.430;2023-12-20T04:32:12;6.40;99.90
43673;DHT22;41723;49.326;8.430;2023-12-20T04:34:37;6.50;99.90
43673;DHT22;41723;49.326;8.430;2023-12-20T04:37:03;6.50;99.90
43673;DHT22;41723;49.326;8.430;2023-12-20T04:39:28;6.40;99.90
43673;DHT22;41723;49.326;8.430;2023-12-20T04:41:54;6.40;99.90
43673;DHT22;41723;49.326;8.430;2023-12-20T04:44:20;6.40;99.90
43673;DHT22;41723;49.326;8.430;2023-12-20T04:46:45;6.40;99.90
43673;DHT22;41723;49.326;8.430;2023-12-20T04:49:11;6.50;99.90
43673;DHT22;41723;49.326;8.430;2023-12-20T04:51:36;6.50;99.90
43673;DHT22;41723;49.326;8.430;2023-12-20T04:54:03;6.50;99.90
43673;DHT22;41723;49.326;8.430;2023-12-20T04:56:29;6.70;99.90
43673;DHT22;41723;49.326;8.430;2023-12-20T04:58:54;6.70;99.90
43673;DHT22;41723;49.326;8.430;2023-12-20T05:01:20;6.80;99.90
43673;DHT22;41723;49.326;8.430;2023-12-20T05:03:46;6.80;99.90
43673;DHT22;41723;49.326;8.430;2023-12-20T05:06:12;6.90;99.90
43673;DHT22;41723;49.326;8.430;2023-12-20T05:08:38;6.90;99.90
43673;DHT22;41723;49.326;8.430;2023-12-20T05:11:03;6.90;99.90
43673;DHT22;41723;49.326;8.430;2023-12-20T05:13:29;6.90;99.90
43673;DHT22;41723;49.326;8.430;2023-12-20T05:15:55;6.90;99.90
43673;DHT22;41723;49.326;8.430;2023-12-20T05:18:21;6.90;99.90
43673;DHT22;41723;49.326;8.430;2023-12-20T05:20:47;6.80;99.90
43673;DHT22;41723;49.326;8.430;2023-12-20T05:23:12;6.90;99.90
43673;DHT22;41723;49.326;8.430;2023-12-20T05:25:38;6.90;99.90
43673;DHT22;41723;49.326;8.430;2023-12-20T05:28:04;6.90;99.90
43673;DHT22;41723;49.326;8.430;2023-12-20T05:30:30;6.90;99.90
43673;DHT22;41723;49.326;8.430;2023-12-20T05:32:55;6.80;99.90
43673;DHT22;41723;49.326;8.430;2023-12-20T05:35:21;6.80;99.90
43673;DHT22;41723;49.326;8.430;2023-12-20T05:37:49;6.80;99.90
43673;DHT22;41723;49.326;8.430;2023-12-20T05:40:14;6.80;99.90
43673;DHT22;41723;49.326;8.430;2023-12-20T05:42:40;6.80;99.90
43673;DHT22;41723;49.326;8.430;2023-12-20T05:45:05;6.80;99.90
43673;DHT22;41723;49.326;8.430;2023-12-20T05:47:31;6.80;99.90
43673;DHT22;41723;49.326;8.430;2023-12-20T05:49:57;6.80;99.90
43673;DHT22;41723;49.326;8.430;2023-12-20T05:52:22;6.80;99.90
43673;DHT22;41723;49.326;8.430;2023-12-20T05:54:48;6.80;99.90
43673;DHT22;41723;49.326;8.430;2023-12-20T05:57:13;6.70;99.90
43673;DHT22;41723;49.326;8.430;2023-12-20T05:59:39;6.80;99.90
43673;DHT22;41723;49.326;8.430;2023-12-20T06:02:05;6.80;99.90
43673;DHT22;41723;49.326;8.430;2023-12-20T06:04:31;6.80;99.90
43673;DHT22;41723;49.326;8.430;2023-12-20T06:06:56;6.80;99.90
43673;DHT22;41723;49.326;8.430;2023-12-20T06:09:22;6.80;99.90
43673;DHT22;41723;49.326;8.430;2023-12-20T06:11:48;6.70;99.90
43673;DHT22;41723;49.326;8.430;2023-12-20T06:14:14;6.70;99.90
43673;DHT22;41723;49.326;8.430;2023-12-20T06:16:39;6.70;99.90
43673;DHT22;41723;49.326;8.430;2023-12-20T06:19:05;6.70;99.90
43673;DHT22;41723;49.326;8.430;2023-12-20T06:21:30;6.70;99.90
43673;DHT22;41723;49.326;8.430;2023-12-20T06:23:56;6.60;99.90
43673;DHT22;41723;49.326;8.430;2023-12-20T06:26:21;6.70;99.90
43673;DHT22;41723;49.326;8.430;2023-12-20T06:28:47;6.70;99.90
43673;DHT22;41723;49.326;8.430;2023-12-20T06:31:13;6.70;99.90
43673;DHT22;41723;49.326;8.430;2023-12-20T06:33:38;6.70;99.90
43673;DHT22;41723;49.326;8.430;2023-12-20T06:36:06;6.80;99.90
43673;DHT22;41723;49.326;8.430;2023-12-20T06:38:32;6.80;99.90
43673;DHT22;41723;49.326;8.430;2023-12-20T06:40:57;6.90;99.90
43673;DHT22;41723;49.326;8.430;2023-12-20T06:43:24;6.90;99.90
43673;DHT22;41723;49.326;8.430;2023-12-20T06:45:49;6.90;99.90
43673;DHT22;41723;49.326;8.430;2023-12-20T06:48:16;6.90;99.90
43673;DHT22;41723;49.326;8.430;2023-12-20T06:50:42;6.80;99.90
43673;DHT22;41723;49.326;8.430;2023-12-20T06:53:07;6.90;99.90
43673;DHT22;41723;49.326;8.430;2023-12-20T06:55:34;6.80;99.90
43673;DHT22;41723;49.326;8.430;2023-12-20T06:58:01;6.90;99.90
43673;DHT22;41723;49.326;8.430;2023-12-20T07:00:26;6.90;99.90
43673;DHT22;41723;49.326;8.430;2023-12-20T07:02:52;6.90;99.90
43673;DHT22;41723;49.326;8.430;2023-12-20T07:05:17;6.80;99.90
43673;DHT22;41723;49.326;8.430;2023-12-20T07:07:45;6.90;99.90
43673;DHT22;41723;49.326;8.430;2023-12-20T07:10:11;6.90;99.90
43673;DHT22;41723;49.326;8.430;2023-12-20T07:12:37;6.90;99.90
43673;DHT22;41723;49.326;8.430;2023-12-20T07:15:03;6.80;99.90
43673;DHT22;41723;49.326;8.430;2023-12-20T07:17:29;6.80;99.90
43673;DHT22;41723;49.326;8.430;2023-12-20T07:19:54;6.80;99.90
43673;DHT22;41723;49.326;8.430;2023-12-20T07:22:20;6.80;99.90
43673;DHT22;41723;49.326;8.430;2023-12-20T07:24:46;6.70;99.90
43673;DHT22;41723;49.326;8.430;2023-12-20T07:27:11;6.70;99.90
43673;DHT22;41723;49.326;8.430;2023-12-20T07:29:37;6.70;99.90
43673;DHT22;41723;49.326;8.430;2023-12-20T07:32:03;6.70;99.90
43673;DHT22;41723;49.326;8.430;2023-12-20T07:34:28;6.70;99.90
43673;DHT22;41723;49.326;8.430;2023-12-20T07:36:54;6.70;99.90
43673;DHT22;41723;49.326;8.430;2023-12-20T07:39:19;6.70;99.90
43673;DHT22;41723;49.326;8.430;2023-12-20T07:41:45;6.60;99.90
43673;DHT22;41723;49.326;8.430;2023-12-20T07:44:11;6.60;99.90
43673;DHT22;41723;49.326;8.430;2023-12-20T07:46:36;6.60;99.90
43673;DHT22;41723;49.326;8.430;2023-12-20T07:49:02;6.70;99.90
43673;DHT22;41723;49.326;8.430;2023-12-20T07:51:28;6.80;99.90
43673;DHT22;41723;49.326;8.430;2023-12-20T07:53:53;6.80;99.90
43673;DHT22;41723;49.326;8.430;2023-12-20T07:56:19;6.80;99.90
43673;DHT22;41723;49.326;8.430;2023-12-20T07:58:45;6.90;99.90
43673;DHT22;41723;49.326;8.430;2023-12-20T08:01:11;7.00;99.90
43673;DHT22;41723;49.326;8.430;2023-12-20T08:03:37;7.00;99.90
43673;DHT22;41723;49.326;8.430;2023-12-20T08:06:03;6.90;99.90
43673;DHT22;41723;49.326;8.430;2023-12-20T08:08:29;6.70;99.90
43673;DHT22;41723;49.326;8.430;2023-12-20T08:10:54;6.60;99.90
43673;DHT22;41723;49.326;8.430;2023-12-20T08:13:20;6.50;99.90
43673;DHT22;41723;49.326;8.430;2023-12-20T08:15:50;6.50;99.90
43673;DHT22;41723;49.326;8.430;2023-12-20T08:18:15;6.50;99.90
43673;DHT22;41723;49.326;8.430;2023-12-20T08:20:41;6.50;99.90
43673;DHT22;41723;49.326;8.430;2023-12-20T08:23:07;6.50;99.90
43673;DHT22;41723;49.326;8.430;2023-12-20T08:25:32;6.50;99.90
43673;DHT22;41723;49.326;8.430;2023-12-20T08:27:58;6.50;99.90
43673;DHT22;41723;49.326;8.430;2023-12-20T08:30:23;6.40;99.90
43673;DHT22;41723;49.326;8.430;2023-12-20T08:32:49;6.40;99.90
43673;DHT22;41723;49.326;8.430;2023-12-20T08:35:14;6.40;99.90
43673;DHT22;41723;49.326;8.430;2023-12-20T08:37:40;6.40;99.90
43673;DHT22;41723;49.326;8.430;2023-12-20T08:40:06;6.40;99.90
43673;DHT22;41723;49.326;8.430;2023-12-20T08:42:31;6.40;99.90
43673;DHT22;41723;49.326;8.430;2023-12-20T08:44:57;6.40;99.90
43673;DHT22;41723;49.326;8.430;2023-12-20T08:47:24;6.50;99.90
43673;DHT22;41723;49.326;8.430;2023-12-20T08:49:49;6.50;99.90
43673;DHT22;41723;49.326;8.430;2023-12-20T08:52:15;6.60;99.90
43673;DHT22;41723;49.326;8.430;2023-12-20T08:54:41;6.60;99.90
43673;DHT22;41723;49.326;8.430;2023-12-20T08:57:06;6.70;99.90
43673;DHT22;41723;49.326;8.430;2023-12-20T08:59:32;6.60;99.90
43673;DHT22;41723;49.326;8.430;2023-12-20T09:01:58;6.60;99.90
43673;DHT22;41723;49.326;8.430;2023-12-20T09:04:24;6.80;99.90
43673;DHT22;41723;49.326;8.430;2023-12-20T09:06:49;6.70;99.90
43673;DHT22;41723;49.326;8.430;2023-12-20T09:09:15;6.70;99.90
43673;DHT22;41723;49.326;8.430;2023-12-20T09:11:40;6.60;99.90
43673;DHT22;41723;49.326;8.430;2023-12-20T09:14:06;6.60;99.90
43673;DHT22;41723;49.326;8.430;2023-12-20T09:16:32;6.60;99.90
43673;DHT22;41723;49.326;8.430;2023-12-20T09:18:57;6.60;99.90
43673;DHT22;41723;49.326;8.430;2023-12-20T09:21:23;6.70;99.90
43673;DHT22;41723;49.326;8.430;2023-12-20T09:23:49;6.70;99.90
43673;DHT22;41723;49.326;8.430;2023-12-20T09:26:16;6.70;99.90
43673;DHT22;41723;49.326;8.430;2023-12-20T09:28:41;6.80;99.90
43673;DHT22;41723;49.326;8.430;2023-12-20T09:31:07;6.80;99.90
43673;DHT22;41723;49.326;8.430;2023-12-20T09:33:33;6.80;99.90
43673;DHT22;41723;49.326;8.430;2023-12-20T09:35:59;6.80;99.90
43673;DHT22;41723;49.326;8.430;2023-12-20T09:38:24;6.90;99.90
43673;DHT22;41723;49.326;8.430;2023-12-20T09:40:50;6.90;99.90
43673;DHT22;41723;49.326;8.430;2023-12-20T09:43:16;7.00;99.90
43673;DHT22;41723;49.326;8.430;2023-12-20T09:45:45;7.00;99.90
43673;DHT22;41723;49.326;8.430;2023-12-20T09:48:11;7.00;99.90
43673;DHT22;41723;49.326;8.430;2023-12-20T09:50:37;7.00;99.90
43673;DHT22;41723;49.326;8.430;2023-12-20T09:53:03;7.00;99.90
43673;DHT22;41723;49.326;8.430;2023-12-20T09:55:30;7.00;99.90
43673;DHT22;41723;49.326;8.430;2023-12-20T09:57:56;7.00;99.90
43673;DHT22;41723;49.326;8.430;2023-12-20T10:00:22;7.00;99.90
43673;DHT22;41723;49.326;8.430;2023-12-20T10:05:15;6.90;99.90
43673;DHT22;41723;49.326;8.430;2023-12-20T10:07:41;6.90;99.90
43673;DHT22;41723;49.326;8.430;2023-12-20T10:10:07;7.00;99.90
43673;DHT22;41723;49.326;8.430;2023-12-20T10:12:34;7.00;99.90
43673;DHT22;41723;49.326;8.430;2023-12-20T10:14:59;7.10;99.90
43673;DHT22;41723;49.326;8.430;2023-12-20T10:17:26;7.10;99.90
43673;DHT22;41723;49.326;8.430;2023-12-20T10:19:54;7.10;99.90
43673;DHT22;41723;49.326;8.430;2023-12-20T10:22:20;7.10;99.90
43673;DHT22;41723;49.326;8.430;2023-12-20T10:24:46;7.10;99.90
43673;DHT22;41723;49.326;8.430;2023-12-20T10:27:12;7.10;99.90
43673;DHT22;41723;49.326;8.430;2023-12-20T10:29:38;7.20;99.90
43673;DHT22;41723;49.326;8.430;2023-12-20T10:35:02;7.40;99.90
43673;DHT22;41723;49.326;8.430;2023-12-20T10:37:28;7.40;99.90
43673;DHT22;41723;49.326;8.430;2023-12-20T10:39:54;7.50;99.90
43673;DHT22;41723;49.326;8.430;2023-12-20T10:42:24;7.70;99.90
43673;DHT22;41723;49.326;8.430;2023-12-20T10:44:51;7.60;99.90
43673;DHT22;41723;49.326;8.430;2023-12-20T10:47:17;7.50;99.90
43673;DHT22;41723;49.326;8.430;2023-12-20T10:49:42;7.50;99.90
43673;DHT22;41723;49.326;8.430;2023-12-20T10:52:09;7.40;99.90
43673;DHT22;41723;49.326;8.430;2023-12-20T10:54:36;7.50;99.90
43673;DHT22;41723;49.326;8.430;2023-12-20T10:57:03;7.40;99.90
43673;DHT22;41723;49.326;8.430;2023-12-20T10:59:30;7.40;99.90
43673;DHT22;41723;49.326;8.430;2023-12-20T11:01:58;7.50;99.90
43673;DHT22;41723;49.326;8.430;2023-12-20T11:04:25;7.40;99.90
43673;DHT22;41723;49.326;8.430;2023-12-20T11:09:43;7.50;99.90
43673;DHT22;41723;49.326;8.430;2023-12-20T11:12:13;7.50;99.90
43673;DHT22;41723;49.326;8.430;2023-12-20T11:14:54;7.50;99.90
43673;DHT22;41723;49.326;8.430;2023-12-20T11:17:28;7.50;99.90
43673;DHT22;41723;49.326;8.430;2023-12-20T11:22:26;7.50;99.90
43673;DHT22;41723;49.326;8.430;2023-12-20T11:24:52;7.50;99.90
43673;DHT22;41723;49.326;8.430;2023-12-20T11:27:18;7.50;99.90
43673;DHT22;41723;49.326;8.430;2023-12-20T11:29:48;7.50;99.90
43673;DHT22;41723;49.326;8.430;2023-12-20T11:34:53;7.40;99.90
43673;DHT22;41723;49.326;8.430;2023-12-20T11:37:21;7.30;99.90
43673;DHT22;41723;49.326;8.430;2023-12-20T11:39:54;7.30;99.90
43673;DHT22;41723;49.326;8.430;2023-12-20T11:42:20;7.30;99.90
43673;DHT22;41723;49.326;8.430;2023-12-20T11:44:45;7.30;99.90
43673;DHT22;41723;49.326;8.430;2023-12-20T11:47:12;7.30;99.90
43673;DHT22;41723;49.326;8.430;2023-12-20T11:49:39;7.30;99.90
43673;DHT22;41723;49.326;8.430;2023-12-20T11:52:05;7.30;99.90
43673;DHT22;41723;49.326;8.430;2023-12-20T11:54:30;7.30;99.90
43673;DHT22;41723;49.326;8.430;2023-12-20T11:56:56;7.30;99.90
43673;DHT22;41723;49.326;8.430;2023-12-20T11:59:21;7.20;99.90
43673;DHT22;41723;49.326;8.430;2023-12-20T12:01:48;7.30;99.90
43673;DHT22;41723;49.326;8.430;2023-12-20T12:04:13;7.20;99.90
43673;DHT22;41723;49.326;8.430;2023-12-20T12:06:39;7.20;99.90
43673;DHT22;41723;49.326;8.430;2023-12-20T12:09:05;7.20;99.90
43673;DHT22;41723;49.326;8.430;2023-12-20T12:11:30;7.20;99.90
43673;DHT22;41723;49.326;8.430;2023-12-20T12:13:56;7.10;99.90
43673;DHT22;41723;49.326;8.430;2023-12-20T12:16:22;7.20;99.90
43673;DHT22;41723;49.326;8.430;2023-12-20T12:18:55;7.10;99.90
43673;DHT22;41723;49.326;8.430;2023-12-20T12:21:20;7.20;99.90
43673;DHT22;41723;49.326;8.430;2023-12-20T12:23:46;7.20;99.90
43673;DHT22;41723;49.326;8.430;2023-12-20T12:26:11;7.10;99.90
43673;DHT22;41723;49.326;8.430;2023-12-20T12:28:39;7.10;99.90
43673;DHT22;41723;49.326;8.430;2023-12-20T12:31:05;7.10;99.90
43673;DHT22;41723;49.326;8.430;2023-12-20T12:33:30;7.20;99.90
43673;DHT22;41723;49.326;8.430;2023-12-20T12:35:56;7.20;99.90
43673;DHT22;41723;49.326;8.430;2023-12-20T12:38:22;7.10;99.90
43673;DHT22;41723;49.326;8.430;2023-12-20T12:40:49;7.20;99.90
43673;DHT22;41723;49.326;8.430;2023-12-20T12:43:15;7.20;99.90
43673;DHT22;41723;49.326;8.430;2023-12-20T12:45:41;7.20;99.90
43673;DHT22;41723;49.326;8.430;2023-12-20T12:48:06;7.30;99.90
43673;DHT22;41723;49.326;8.430;2023-12-20T12:50:32;7.30;99.90
43673;DHT22;41723;49.326;8.430;2023-12-20T12:52:58;7.30;99.90
43673;DHT22;41723;49.326;8.430;2023-12-20T12:55:23;7.30;99.90
43673;DHT22;41723;49.326;8.430;2023-12-20T12:57:49;7.40;99.90
43673;DHT22;41723;49.326;8.430;2023-12-20T13:00:15;7.30;99.90
43673;DHT22;41723;49.326;8.430;2023-12-20T13:02:40;7.40;99.90
43673;DHT22;41723;49.326;8.430;2023-12-20T13:05:09;7.40;99.90
43673;DHT22;41723;49.326;8.430;2023-12-20T13:07:34;7.30;99.90
43673;DHT22;41723;49.326;8.430;2023-12-20T13:10:00;7.40;99.90
43673;DHT22;41723;49.326;8.430;2023-12-20T13:12:26;7.40;99.90
43673;DHT22;41723;49.326;8.430;2023-12-20T13:14:52;7.40;99.90
43673;DHT22;41723;49.326;8.430;2023-12-20T13:17:19;7.40;99.90
43673;DHT22;41723;49.326;8.430;2023-12-20T13:19:45;7.40;99.90
43673;DHT22;41723;49.326;8.430;2023-12-20T13:22:10;7.40;99.90
43673;DHT22;41723;49.326;8.430;2023-12-20T13:24:39;7.40;99.90
43673;DHT22;41723;49.326;8.430;2023-12-20T13:27:05;7.50;99.90
43673;DHT22;41723;49.326;8.430;2023-12-20T13:29:31;7.60;99.90
43673;DHT22;41723;49.326;8.430;2023-12-20T13:31:57;7.60;99.90
43673;DHT22;41723;49.326;8.430;2023-12-20T13:34:23;7.50;99.90
43673;DHT22;41723;49.326;8.430;2023-12-20T13:36:49;7.60;99.90
43673;DHT22;41723;49.326;8.430;2023-12-20T13:39:16;7.50;99.90
43673;DHT22;41723;49.326;8.430;2023-12-20T13:41:42;7.60;99.90
43673;DHT22;41723;49.326;8.430;2023-12-20T13:44:08;7.50;99.90
43673;DHT22;41723;49.326;8.430;2023-12-20T13:46:33;7.40;99.90
43673;DHT22;41723;49.326;8.430;2023-12-20T13:48:59;7.50;99.90
43673;DHT22;41723;49.326;8.430;2023-12-20T13:51:25;7.50;99.90
43673;DHT22;41723;49.326;8.430;2023-12-20T13:53:50;7.50;99.90
43673;DHT22;41723;49.326;8.430;2023-12-20T13:56:16;7.50;99.90
43673;DHT22;41723;49.326;8.430;2023-12-20T13:58:41;7.60;99.90
43673;DHT22;41723;49.326;8.430;2023-12-20T14:01:08;7.60;99.90
43673;DHT22;41723;49.326;8.430;2023-12-20T14:03:34;7.50;99.90
43673;DHT22;41723;49.326;8.430;2023-12-20T14:06:00;7.50;99.90
43673;DHT22;41723;49.326;8.430;2023-12-20T14:08:27;7.50;99.90
43673;DHT22;41723;49.326;8.430;2023-12-20T14:10:53;7.50;99.90
43673;DHT22;41723;49.326;8.430;2023-12-20T14:13:18;7.50;99.90
43673;DHT22;41723;49.326;8.430;2023-12-20T14:15:44;7.50;99.90
43673;DHT22;41723;49.326;8.430;2023-12-20T14:18:10;7.50;99.90
43673;DHT22;41723;49.326;8.430;2023-12-20T14:20:35;7.60;99.90
43673;DHT22;41723;49.326;8.430;2023-12-20T14:23:01;7.70;99.90
43673;DHT22;41723;49.326;8.430;2023-12-20T14:25:27;7.60;99.90
43673;DHT22;41723;49.326;8.430;2023-12-20T14:27:53;7.60;99.90
43673;DHT22;41723;49.326;8.430;2023-12-20T14:30:18;7.60;99.90
43673;DHT22;41723;49.326;8.430;2023-12-20T14:32:44;7.60;99.90
43673;DHT22;41723;49.326;8.430;2023-12-20T14:35:10;7.50;99.90
43673;DHT22;41723;49.326;8.430;2023-12-20T14:37:35;7.50;99.90
43673;DHT22;41723;49.326;8.430;2023-12-20T14:40:05;7.40;99.90
43673;DHT22;41723;49.326;8.430;2023-12-20T14:42:30;7.30;99.90
43673;DHT22;41723;49.326;8.430;2023-12-20T14:44:57;7.40;99.90
43673;DHT22;41723;49.326;8.430;2023-12-20T14:47:23;7.30;99.90
43673;DHT22;41723;49.326;8.430;2023-12-20T14:49:50;7.30;99.90
43673;DHT22;41723;49.326;8.430;2023-12-20T14:52:19;7.30;99.90
43673;DHT22;41723;49.326;8.430;2023-12-20T14:54:44;7.30;99.90
43673;DHT22;41723;49.326;8.430;2023-12-20T14:57:10;7.30;99.90
43673;DHT22;41723;49.326;8.430;2023-12-20T14:59:36;7.30;99.90
43673;DHT22;41723;49.326;8.430;2023-12-20T15:02:01;7.20;99.90
43673;DHT22;41723;49.326;8.430;2023-12-20T15:04:30;7.10;99.90
43673;DHT22;41723;49.326;8.430;2023-12-20T15:06:56;7.10;99.90
43673;DHT22;41723;49.326;8.430;2023-12-20T15:09:21;7.20;99.90
43673;DHT22;41723;49.326;8.430;2023-12-20T15:11:47;7.20;99.90
43673;DHT22;41723;49.326;8.430;2023-12-20T15:14:13;7.10;99.90
43673;DHT22;41723;49.326;8.430;2023-12-20T15:16:44;7.10;99.90
43673;DHT22;41723;49.326;8.430;2023-12-20T15:19:10;7.10;99.90
43673;DHT22;41723;49.326;8.430;2023-12-20T15:21:35;7.10;99.90
43673;DHT22;41723;49.326;8.430;2023-12-20T15:24:06;7.00;99.90
43673;DHT22;41723;49.326;8.430;2023-12-20T15:26:38;7.10;99.90
43673;DHT22;41723;49.326;8.430;2023-12-20T15:29:04;7.10;99.90
43673;DHT22;41723;49.326;8.430;2023-12-20T15:31:30;7.00;99.90
43673;DHT22;41723;49.326;8.430;2023-12-20T15:33:56;7.00;99.90
43673;DHT22;41723;49.326;8.430;2023-12-20T15:36:22;7.00;99.90
43673;DHT22;41723;49.326;8.430;2023-12-20T15:38:48;7.00;99.90
43673;DHT22;41723;49.326;8.430;2023-12-20T15:41:17;7.00;99.90
43673;DHT22;41723;49.326;8.430;2023-12-20T15:43:43;7.00;99.90
43673;DHT22;41723;49.326;8.430;2023-12-20T15:46:09;7.00;99.90
43673;DHT22;41723;49.326;8.430;2023-12-20T15:48:35;7.00;99.90